createdAt,value
2017-08-18T00:01:21.623Z,14.80
2017-08-18T00:03:49.035Z,22.57
2017-08-18T00:06:16.430Z,15.67
2017-08-18T00:08:43.856Z,19.10
2017-08-18T00:11:11.248Z,22.67
2017-08-18T00:13:38.660Z,17.77
2017-08-18T00:16:06.067Z,25.07
2017-08-18T00:18:33.470Z,26.23
2017-08-18T00:21:00.893Z,20.00
2017-08-18T00:23:28.283Z,18.93
2017-08-18T00:25:55.682Z,20.03
2017-08-18T00:28:23.082Z,17.87
2017-08-18T00:30:50.491Z,24.93
2017-08-18T00:33:17.915Z,22.60
2017-08-18T00:35:45.314Z,20.77
2017-08-18T00:38:12.936Z,15.07
2017-08-18T00:40:40.336Z,19.20
2017-08-18T00:43:07.735Z,22.10
2017-08-18T00:45:35.135Z,18.17
2017-08-18T00:48:02.535Z,17.73
2017-08-18T00:50:29.934Z,21.20
2017-08-18T00:52:57.343Z,25.33
2017-08-18T00:55:24.742Z,30.50
2017-08-18T00:57:52.147Z,21.93
2017-08-18T01:00:19.547Z,19.13
2017-08-18T01:02:46.947Z,21.57
2017-08-18T01:05:14.355Z,19.83
2017-08-18T01:07:41.746Z,21.80
2017-08-18T01:10:09.147Z,19.87
2017-08-18T01:12:36.539Z,23.30
2017-08-18T01:15:03.958Z,16.83
2017-08-18T01:17:31.350Z,20.97
2017-08-18T01:19:58.754Z,17.83
2017-08-18T01:22:26.161Z,17.90
2017-08-18T01:24:53.591Z,20.43
2017-08-18T01:27:20.995Z,15.00
2017-08-18T01:29:48.403Z,17.23
2017-08-18T01:32:16.026Z,19.50
2017-08-18T01:34:43.426Z,15.60
2017-08-18T01:37:11.038Z,19.90
2017-08-18T01:39:38.439Z,16.47
2017-08-18T01:42:05.842Z,21.00
2017-08-18T01:44:33.452Z,14.83
2017-08-18T01:47:00.854Z,17.63
2017-08-18T01:49:28.252Z,11.63
2017-08-18T01:51:55.867Z,14.27
2017-08-18T01:54:23.268Z,13.97
2017-08-18T01:56:50.667Z,17.03
2017-08-18T01:59:18.062Z,14.07
2017-08-18T02:01:45.462Z,20.23
2017-08-18T02:04:12.863Z,14.00
2017-08-18T02:06:40.260Z,15.30
2017-08-18T02:09:07.656Z,16.03
2017-08-18T02:11:35.066Z,14.07
2017-08-18T02:14:02.463Z,13.37
2017-08-18T02:16:29.879Z,18.10
2017-08-18T02:18:57.294Z,15.23
2017-08-18T02:21:24.694Z,15.37
2017-08-18T02:23:52.111Z,15.10
2017-08-18T02:26:19.570Z,14.10
2017-08-18T02:28:46.948Z,13.97
2017-08-18T02:31:15.674Z,12.73
2017-08-18T02:33:43.084Z,13.10
2017-08-18T02:36:10.483Z,15.90
2017-08-18T02:38:37.887Z,14.50
2017-08-18T02:41:05.491Z,15.23
2017-08-18T02:43:32.900Z,12.37
2017-08-18T02:46:00.295Z,13.57
2017-08-18T02:48:27.698Z,11.93
2017-08-18T02:50:55.097Z,21.23
2017-08-18T02:53:22.499Z,20.20
2017-08-18T02:55:49.903Z,15.83
2017-08-18T02:58:17.332Z,14.07
2017-08-18T03:00:44.739Z,14.83
2017-08-18T03:03:12.151Z,14.27
2017-08-18T03:05:39.768Z,14.57
2017-08-18T03:08:07.162Z,16.00
2017-08-18T03:10:34.563Z,11.27
2017-08-18T03:13:02.141Z,16.40
2017-08-18T03:15:29.540Z,12.27
2017-08-18T03:17:57.142Z,13.23
2017-08-18T03:20:24.768Z,13.00
2017-08-18T03:22:52.213Z,12.90
2017-08-18T03:25:19.612Z,13.13
2017-08-18T03:27:47.022Z,11.57
2017-08-18T03:30:14.424Z,13.90
2017-08-18T03:32:42.026Z,14.40
2017-08-18T03:35:09.431Z,10.27
2017-08-18T03:37:37.047Z,11.83
2017-08-18T03:40:04.451Z,12.43
2017-08-18T03:42:31.846Z,13.83
2017-08-18T03:44:59.246Z,13.10
2017-08-18T03:47:26.639Z,11.63
2017-08-18T03:49:54.039Z,11.47
2017-08-18T03:52:21.659Z,13.50
2017-08-18T03:54:49.057Z,13.77
2017-08-18T03:57:16.459Z,13.13
2017-08-18T03:59:43.851Z,12.33
2017-08-18T04:02:11.254Z,11.93
2017-08-18T04:04:38.654Z,10.67
2017-08-18T04:07:06.070Z,14.17
2017-08-18T04:09:33.473Z,11.07
2017-08-18T04:12:00.876Z,14.50
2017-08-18T04:14:28.270Z,17.83
2017-08-18T04:16:55.666Z,13.03
2017-08-18T04:19:23.071Z,12.20
2017-08-18T04:21:50.474Z,15.00
2017-08-18T04:24:17.883Z,14.77
2017-08-18T04:26:45.291Z,11.40
2017-08-18T04:29:12.682Z,12.53
2017-08-18T04:31:40.087Z,19.40
2017-08-18T04:34:07.479Z,12.90
2017-08-18T04:36:34.893Z,10.20
2017-08-18T04:39:02.287Z,9.60
2017-08-18T04:41:29.680Z,10.17
2017-08-18T04:43:57.079Z,14.90
2017-08-18T04:46:25.379Z,11.70
2017-08-18T04:48:52.783Z,14.20
2017-08-18T04:51:20.166Z,8.83
2017-08-18T04:53:47.563Z,11.47
2017-08-18T04:56:14.967Z,15.07
2017-08-18T04:58:42.368Z,11.70
2017-08-18T05:01:09.761Z,12.45
2017-08-18T05:03:37.161Z,11.37
2017-08-18T05:06:04.552Z,13.80
2017-08-18T05:08:31.959Z,10.60
2017-08-18T05:10:59.570Z,14.20
2017-08-18T05:13:26.971Z,12.10
2017-08-18T05:15:54.362Z,5.00
2017-08-18T05:18:21.765Z,10.20
2017-08-18T05:20:49.150Z,11.10
2017-08-18T05:23:16.538Z,9.30
2017-08-18T05:25:43.932Z,10.17
2017-08-18T05:28:11.332Z,10.40
2017-08-18T05:30:38.726Z,14.70
2017-08-18T05:33:06.367Z,8.10
2017-08-18T05:35:34.030Z,8.40
2017-08-18T05:38:01.420Z,12.37
2017-08-18T05:40:28.814Z,8.77
2017-08-18T05:42:56.207Z,9.93
2017-08-18T05:45:23.854Z,8.40
2017-08-18T05:47:51.239Z,8.20
2017-08-18T05:50:18.639Z,9.10
2017-08-18T05:52:46.028Z,12.87
2017-08-18T05:55:13.435Z,10.80
2017-08-18T05:57:40.831Z,10.83
2017-08-18T06:00:08.227Z,8.33
2017-08-18T06:02:35.614Z,13.37
2017-08-18T06:05:03.018Z,12.90
2017-08-18T06:07:30.410Z,14.13
2017-08-18T06:09:57.817Z,13.63
2017-08-18T06:12:25.206Z,9.77
2017-08-18T06:14:52.619Z,23.07
2017-08-18T06:17:20.008Z,9.33
2017-08-18T06:19:47.432Z,15.13
2017-08-18T06:22:14.827Z,8.53
2017-08-18T06:24:42.227Z,7.40
2017-08-18T06:27:09.615Z,11.97
2017-08-18T06:29:37.017Z,14.30
2017-08-18T06:32:04.405Z,7.43
2017-08-18T06:34:31.790Z,9.33
2017-08-18T06:36:59.186Z,10.50
2017-08-18T06:39:26.599Z,9.53
2017-08-18T06:41:53.989Z,10.37
2017-08-18T06:44:22.101Z,8.50
2017-08-18T06:46:49.513Z,9.03
2017-08-18T06:49:16.915Z,7.90
2017-08-18T06:51:44.298Z,8.00
2017-08-18T06:54:11.686Z,10.07
2017-08-18T06:56:39.091Z,9.00
2017-08-18T06:59:06.475Z,9.13
2017-08-18T07:01:33.877Z,9.17
2017-08-18T07:04:01.262Z,8.97
2017-08-18T07:06:28.655Z,7.97
2017-08-18T07:08:56.041Z,7.97
2017-08-18T07:11:23.436Z,7.33
2017-08-18T07:13:50.855Z,11.20
2017-08-18T07:16:18.234Z,9.70
2017-08-18T07:18:45.874Z,6.50
2017-08-18T07:21:13.281Z,7.20
2017-08-18T07:23:40.670Z,12.30
2017-08-18T07:26:08.064Z,9.73
2017-08-18T07:28:35.473Z,7.10
2017-08-18T07:31:02.858Z,8.00
2017-08-18T07:33:30.261Z,10.03
2017-08-18T07:35:57.638Z,7.67
2017-08-18T07:38:25.326Z,9.13
2017-08-18T07:40:52.715Z,9.57
2017-08-18T07:43:20.123Z,7.83
2017-08-18T07:45:47.514Z,7.97
2017-08-18T07:48:14.907Z,8.93
2017-08-18T07:50:42.303Z,7.07
2017-08-18T07:53:09.695Z,7.67
2017-08-18T07:55:37.112Z,9.30
2017-08-18T07:58:04.495Z,9.20
2017-08-18T08:00:31.886Z,7.23
2017-08-18T08:02:59.283Z,5.13
2017-08-18T08:05:26.694Z,9.60
2017-08-18T08:07:54.083Z,10.20
2017-08-18T08:10:21.466Z,9.70
2017-08-18T08:12:48.866Z,9.30
2017-08-18T08:15:16.267Z,9.20
2017-08-18T08:17:43.659Z,10.40
2017-08-18T08:20:11.054Z,6.40
2017-08-18T08:22:38.442Z,6.20
2017-08-18T08:25:05.828Z,7.93
2017-08-18T08:27:33.230Z,9.97
2017-08-18T08:30:00.622Z,10.07
2017-08-18T08:32:28.014Z,9.97
2017-08-18T08:34:55.398Z,7.13
2017-08-18T08:37:22.794Z,6.10
2017-08-18T08:39:50.191Z,7.50
2017-08-18T08:42:17.592Z,7.43
2017-08-18T08:44:44.982Z,10.33
2017-08-18T08:47:12.387Z,10.23
2017-08-18T08:49:39.771Z,6.20
2017-08-18T08:52:07.170Z,7.10
2017-08-18T08:54:34.560Z,6.70
2017-08-18T08:57:01.971Z,12.57
2017-08-18T08:59:29.370Z,7.53
2017-08-18T09:01:56.754Z,7.40
2017-08-18T09:04:24.155Z,7.40
2017-08-18T09:06:51.548Z,8.00
2017-08-18T09:09:18.951Z,11.87
2017-08-18T09:11:46.342Z,7.40
2017-08-18T09:14:13.738Z,9.03
2017-08-18T09:16:41.126Z,14.60
2017-08-18T09:19:08.523Z,7.33
2017-08-18T09:21:35.915Z,8.67
2017-08-18T09:24:03.526Z,10.90
2017-08-18T09:26:30.916Z,11.03
2017-08-18T09:28:58.314Z,7.67
2017-08-18T09:31:25.705Z,6.70
2017-08-18T09:33:53.111Z,7.20
2017-08-18T09:36:20.504Z,12.03
2017-08-18T09:38:48.149Z,6.87
2017-08-18T09:41:15.534Z,9.17
2017-08-18T09:43:42.934Z,7.97
2017-08-18T09:46:10.326Z,6.37
2017-08-18T09:48:49.562Z,6.77
2017-08-18T09:51:28.559Z,6.17
2017-08-18T09:57:16.359Z,10.20
2017-08-18T09:59:43.767Z,11.20
2017-08-18T10:02:11.154Z,6.77
2017-08-18T10:04:38.553Z,7.03
2017-08-18T10:07:06.634Z,6.93
2017-08-18T10:09:34.279Z,5.93
2017-08-18T10:12:01.670Z,7.87
2017-08-18T10:14:29.055Z,6.23
2017-08-18T10:16:56.451Z,7.93
2017-08-18T10:19:23.834Z,7.43
2017-08-18T10:21:51.251Z,9.73
2017-08-18T10:24:18.642Z,6.53
2017-08-18T10:26:46.039Z,7.90
2017-08-18T10:29:13.424Z,6.47
2017-08-18T10:31:40.819Z,5.60
2017-08-18T10:34:08.227Z,6.03
2017-08-18T10:36:35.625Z,5.70
2017-08-18T10:39:03.003Z,7.40
2017-08-18T10:41:30.390Z,5.10
2017-08-18T10:43:57.806Z,10.60
2017-08-18T10:46:25.184Z,9.80
2017-08-18T10:48:52.566Z,5.53
2017-08-18T10:51:19.958Z,7.77
2017-08-18T10:53:47.347Z,13.20
2017-08-18T10:56:14.752Z,6.27
2017-08-18T10:58:42.157Z,10.37
2017-08-18T11:01:09.551Z,5.60
2017-08-18T11:03:36.943Z,4.97
2017-08-18T11:06:04.339Z,9.23
2017-08-18T11:08:31.736Z,8.87
2017-08-18T11:10:59.147Z,5.00
2017-08-18T11:13:26.538Z,8.73
2017-08-18T11:15:53.927Z,4.17
2017-08-18T11:18:21.338Z,4.83
2017-08-18T11:20:48.727Z,6.13
2017-08-18T11:23:16.122Z,4.60
2017-08-18T11:25:43.515Z,6.93
2017-08-18T11:28:10.906Z,7.10
2017-08-18T11:30:38.307Z,7.40
2017-08-18T11:33:05.722Z,5.63
2017-08-18T11:35:33.138Z,6.33
2017-08-18T11:38:00.535Z,5.47
2017-08-18T11:40:27.927Z,4.83
2017-08-18T11:42:55.333Z,5.17
2017-08-18T11:45:22.746Z,3.70
2017-08-18T11:47:50.178Z,7.27
2017-08-18T11:50:17.559Z,5.80
2017-08-18T11:52:44.943Z,8.57
2017-08-18T11:55:12.336Z,4.57
2017-08-18T11:57:39.726Z,5.20
2017-08-18T12:00:07.119Z,4.63
2017-08-18T12:02:34.511Z,9.40
2017-08-18T12:05:01.906Z,6.60
2017-08-18T12:07:29.508Z,5.70
2017-08-18T12:09:56.899Z,7.13
2017-08-18T12:12:24.305Z,9.80
2017-08-18T12:14:51.692Z,5.97
2017-08-18T12:17:19.079Z,6.73
2017-08-18T12:19:46.487Z,6.17
2017-08-18T12:22:13.877Z,7.07
2017-08-18T12:24:41.263Z,6.13
2017-08-18T12:27:08.654Z,5.00
2017-08-18T12:29:36.058Z,4.80
2017-08-18T12:32:03.455Z,5.13
2017-08-18T12:34:30.843Z,8.13
2017-08-18T12:36:58.238Z,6.03
2017-08-18T12:39:25.628Z,4.53
2017-08-18T12:41:53.039Z,7.00
2017-08-18T12:44:20.411Z,5.73
2017-08-18T12:46:47.808Z,4.60
2017-08-18T12:49:15.195Z,7.03
2017-08-18T12:51:42.591Z,5.33
2017-08-18T12:54:09.980Z,3.20
2017-08-18T12:56:37.381Z,7.20
2017-08-18T12:59:04.775Z,4.13
2017-08-18T13:01:32.166Z,4.83
2017-08-18T13:03:59.550Z,6.10
2017-08-18T13:06:26.955Z,3.30
2017-08-18T13:08:54.347Z,4.47
2017-08-18T13:11:22.021Z,5.33
2017-08-18T13:13:49.407Z,6.43
2017-08-18T13:16:16.815Z,6.63
2017-08-18T13:18:44.202Z,10.07
2017-08-18T13:21:11.612Z,4.50
2017-08-18T13:23:38.986Z,5.30
2017-08-18T13:26:06.415Z,4.37
2017-08-18T13:28:33.800Z,5.00
2017-08-18T13:31:01.202Z,8.80
2017-08-18T13:33:28.579Z,4.43
2017-08-18T13:35:55.963Z,6.17
2017-08-18T13:38:23.355Z,5.07
2017-08-18T13:40:50.750Z,6.63
2017-08-18T13:43:18.154Z,6.33
2017-08-18T13:45:45.534Z,5.70
2017-08-18T13:48:12.937Z,6.50
2017-08-18T13:50:40.331Z,11.03
2017-08-18T13:53:07.719Z,4.87
2017-08-18T13:55:35.103Z,3.53
2017-08-18T13:58:02.494Z,3.13
2017-08-18T14:00:29.883Z,5.80
2017-08-18T14:02:57.288Z,4.63
2017-08-18T14:05:24.683Z,5.23
2017-08-18T14:07:52.303Z,5.27
2017-08-18T14:10:19.701Z,6.80
2017-08-18T14:12:47.114Z,4.67
2017-08-18T14:15:14.496Z,8.13
2017-08-18T14:17:41.883Z,6.23
2017-08-18T14:20:09.270Z,7.20
2017-08-18T14:22:36.660Z,4.23
2017-08-18T14:25:09.743Z,7.50
2017-08-18T14:27:42.646Z,10.17
2017-08-18T14:30:10.042Z,4.37
2017-08-18T14:32:37.436Z,5.00
2017-08-18T14:35:04.818Z,6.03
2017-08-18T14:37:32.218Z,8.00
2017-08-18T14:39:59.606Z,4.10
2017-08-18T14:42:26.995Z,4.03
2017-08-18T14:44:54.382Z,4.03
2017-08-18T14:47:21.768Z,3.20
2017-08-18T14:49:49.163Z,13.43
2017-08-18T14:52:16.772Z,4.10
2017-08-18T14:54:44.168Z,3.53
2017-08-18T14:57:11.563Z,10.17
2017-08-18T14:59:38.968Z,8.30
2017-08-18T15:02:06.363Z,10.37
2017-08-18T15:04:33.764Z,5.50
2017-08-18T15:07:01.152Z,4.97
2017-08-18T15:09:28.551Z,4.10
2017-08-18T15:11:55.942Z,3.73
2017-08-18T15:14:23.339Z,4.97
2017-08-18T15:16:50.750Z,6.60
2017-08-18T15:19:18.134Z,4.97
2017-08-18T15:21:45.535Z,2.90
2017-08-18T15:24:12.935Z,6.03
2017-08-18T15:26:40.314Z,4.27
2017-08-18T15:29:07.703Z,7.20
2017-08-18T15:31:35.101Z,3.70
2017-08-18T15:34:02.499Z,4.10
2017-08-18T15:36:29.894Z,4.23
2017-08-18T15:38:57.298Z,8.03
2017-08-18T15:41:24.968Z,5.20
2017-08-18T15:43:52.349Z,9.83
2017-08-18T15:46:19.742Z,5.07
2017-08-18T15:48:47.131Z,6.63
2017-08-18T15:51:14.788Z,7.10
2017-08-18T15:53:42.175Z,3.30
2017-08-18T15:56:09.562Z,3.80
2017-08-18T15:58:36.959Z,6.63
2017-08-18T16:01:04.346Z,4.30
2017-08-18T16:03:31.738Z,3.83
2017-08-18T16:05:59.124Z,6.73
2017-08-18T16:08:26.514Z,5.63
2017-08-18T16:10:53.912Z,9.90
2017-08-18T16:13:21.307Z,5.80
2017-08-18T16:15:48.683Z,8.90
2017-08-18T16:18:16.086Z,10.00
2017-08-18T16:20:43.484Z,5.23
2017-08-18T16:23:10.879Z,7.10
2017-08-18T16:25:38.267Z,5.37
2017-08-18T16:28:05.658Z,5.40
2017-08-18T16:30:33.072Z,7.70
2017-08-18T16:33:00.476Z,6.53
2017-08-18T16:35:27.872Z,12.73
2017-08-18T16:37:55.278Z,9.13
2017-08-18T16:40:22.876Z,4.70
2017-08-18T16:42:50.279Z,4.90
2017-08-18T16:45:17.674Z,10.33
2017-08-18T16:47:45.066Z,5.83
2017-08-18T16:50:12.464Z,4.70
2017-08-18T16:52:39.847Z,6.70
2017-08-18T16:55:07.243Z,9.27
2017-08-18T16:57:34.722Z,7.83
2017-08-18T17:00:02.108Z,4.60
2017-08-18T17:02:29.494Z,7.23
2017-08-18T17:04:56.893Z,6.67
2017-08-18T17:07:24.275Z,7.17
2017-08-18T17:09:51.681Z,8.00
2017-08-18T17:12:19.078Z,6.10
2017-08-18T17:14:46.477Z,6.50
2017-08-18T17:17:13.870Z,6.10
2017-08-18T17:19:41.267Z,5.77
2017-08-18T17:22:08.662Z,6.10
2017-08-18T17:24:36.078Z,10.70
2017-08-18T17:27:03.474Z,5.63
2017-08-18T17:29:30.867Z,7.57
2017-08-18T17:31:58.255Z,11.07
2017-08-18T17:34:25.666Z,11.03
2017-08-18T17:36:53.063Z,7.57
2017-08-18T17:39:20.467Z,11.43
2017-08-18T17:41:47.866Z,9.10
2017-08-18T17:44:15.254Z,7.90
2017-08-18T17:46:42.660Z,6.87
2017-08-18T17:49:10.051Z,8.37
2017-08-18T17:51:37.468Z,7.30
2017-08-18T17:54:04.861Z,8.73
2017-08-18T17:56:32.263Z,10.73
2017-08-18T17:58:59.655Z,13.80
2017-08-18T18:01:27.051Z,9.30
2017-08-18T18:03:54.671Z,8.13
2017-08-18T18:06:22.307Z,12.13
2017-08-18T18:08:49.700Z,7.73
2017-08-18T18:11:17.091Z,6.90
2017-08-18T18:13:44.474Z,7.00
2017-08-18T18:16:11.888Z,12.20
2017-08-18T18:18:39.276Z,16.90
2017-08-18T18:21:06.671Z,6.20
2017-08-18T18:23:34.272Z,4.63
2017-08-18T18:26:01.682Z,3.17
2017-08-18T18:28:29.051Z,2.70
2017-08-18T18:30:56.433Z,2.50
2017-08-18T18:33:23.835Z,2.33
2017-08-18T18:35:51.218Z,1.90
2017-08-18T18:38:18.611Z,2.23
2017-08-18T18:40:46.012Z,1.53
2017-08-18T18:43:13.408Z,1.73
2017-08-18T18:45:40.786Z,2.40
2017-08-18T18:48:08.187Z,3.23
2017-08-18T18:50:35.593Z,1.70
2017-08-18T18:53:02.990Z,2.00
2017-08-18T18:55:30.380Z,2.10
2017-08-18T18:57:57.780Z,2.00
2017-08-18T19:00:25.163Z,2.10
2017-08-18T19:02:52.558Z,2.53
2017-08-18T19:05:19.958Z,3.10
2017-08-18T19:07:47.360Z,1.50
2017-08-18T19:10:14.731Z,5.53
2017-08-18T19:12:42.139Z,2.50
2017-08-18T19:15:09.529Z,5.70
2017-08-18T19:17:36.962Z,1.93
2017-08-18T19:20:04.355Z,2.33
2017-08-18T19:22:31.767Z,1.73
2017-08-18T19:24:59.162Z,5.20
2017-08-18T19:27:26.554Z,3.03
2017-08-18T19:29:53.962Z,2.03
2017-08-18T19:32:21.363Z,2.13
2017-08-18T19:34:48.750Z,3.90
2017-08-18T19:37:16.140Z,2.10
2017-08-18T19:39:43.555Z,1.90
2017-08-18T19:42:10.943Z,2.50
2017-08-18T19:44:38.338Z,3.80
2017-08-18T19:47:05.718Z,1.90
2017-08-18T19:49:33.335Z,4.30
2017-08-18T19:52:00.726Z,1.90
2017-08-18T19:54:28.127Z,2.60
2017-08-18T19:56:55.520Z,5.63
2017-08-18T19:59:22.915Z,1.87
2017-08-18T20:01:50.311Z,7.53
2017-08-18T20:04:17.731Z,2.40
2017-08-18T20:06:45.139Z,7.03
2017-08-18T20:09:12.565Z,3.20
2017-08-18T20:11:40.169Z,6.70
2017-08-18T20:14:07.551Z,3.97
2017-08-18T20:16:34.953Z,3.80
2017-08-18T20:19:02.340Z,4.00
2017-08-18T20:21:29.735Z,4.53
2017-08-18T20:23:57.210Z,6.93
2017-08-18T20:26:24.609Z,5.77
2017-08-18T20:28:52.018Z,5.47
2017-08-18T20:31:19.423Z,6.23
2017-08-18T20:33:46.821Z,6.00
2017-08-18T20:36:14.222Z,5.87
2017-08-18T20:38:41.607Z,5.70
2017-08-18T20:41:09.007Z,6.63
2017-08-18T20:43:36.395Z,6.50
2017-08-18T20:46:03.808Z,7.00
2017-08-18T20:48:31.187Z,8.07
2017-08-18T20:50:58.619Z,6.50
2017-08-18T20:53:26.004Z,7.03
2017-08-18T20:55:53.395Z,7.27
2017-08-18T20:58:20.787Z,6.50
2017-08-18T21:00:48.202Z,7.27
2017-08-18T21:03:15.591Z,12.67
2017-08-18T21:05:42.990Z,11.70
2017-08-18T21:08:10.424Z,10.80
2017-08-18T21:10:37.818Z,9.07
2017-08-18T21:13:05.227Z,7.40
2017-08-18T21:15:32.618Z,9.10
2017-08-18T21:18:00.768Z,8.67
2017-08-18T21:20:28.162Z,11.90
2017-08-18T21:22:55.774Z,9.73
2017-08-18T21:25:23.390Z,13.50
2017-08-18T21:27:50.786Z,9.77
2017-08-18T21:30:18.175Z,9.73
2017-08-18T21:32:45.580Z,7.40
2017-08-18T21:35:12.967Z,8.47
2017-08-18T21:37:40.355Z,7.10
2017-08-18T21:40:07.966Z,7.83
2017-08-18T21:42:35.366Z,6.90
2017-08-18T21:45:02.759Z,7.20
2017-08-18T21:47:30.176Z,10.20
2017-08-18T21:49:57.569Z,12.10
2017-08-18T21:52:24.979Z,9.53
2017-08-18T21:54:52.411Z,6.80
2017-08-18T21:57:19.819Z,10.20
2017-08-18T21:59:47.217Z,12.63
2017-08-18T22:02:14.611Z,9.33
2017-08-18T22:04:41.999Z,9.70
2017-08-18T22:07:09.407Z,11.73
2017-08-18T22:09:36.806Z,10.00
2017-08-18T22:12:04.203Z,10.27
2017-08-18T22:14:31.604Z,14.13
2017-08-18T22:16:59.011Z,13.60
2017-08-18T22:19:26.426Z,18.40
2017-08-18T22:21:53.830Z,12.00
2017-08-18T22:24:21.245Z,14.97
2017-08-18T22:26:48.652Z,13.50
2017-08-18T22:29:16.047Z,12.67
2017-08-18T22:31:43.456Z,12.23
2017-08-18T22:34:10.856Z,15.30
2017-08-18T22:36:38.258Z,16.67
2017-08-18T22:39:05.667Z,17.70
2017-08-18T22:41:33.078Z,15.57
2017-08-18T22:44:01.034Z,15.60
2017-08-18T22:46:28.439Z,14.37
2017-08-18T22:48:55.830Z,21.97
2017-08-18T22:51:23.231Z,19.30
2017-08-18T22:53:50.633Z,16.63
2017-08-18T22:56:18.051Z,22.07
2017-08-18T22:58:45.447Z,20.40
2017-08-18T23:01:12.847Z,23.37
2017-08-18T23:03:40.282Z,16.40
2017-08-18T23:06:07.681Z,18.47
2017-08-18T23:08:35.087Z,12.50
2017-08-18T23:11:02.714Z,13.57
2017-08-18T23:13:30.112Z,19.23
2017-08-18T23:15:57.507Z,12.23
2017-08-18T23:18:24.913Z,18.53
2017-08-18T23:20:52.319Z,12.90
2017-08-18T23:23:19.708Z,10.73
2017-08-18T23:25:47.107Z,10.33
2017-08-18T23:28:14.494Z,11.00
2017-08-18T23:30:41.890Z,17.07
2017-08-18T23:33:09.291Z,10.97
2017-08-18T23:35:36.689Z,9.40
2017-08-18T23:38:04.298Z,11.80
2017-08-18T23:40:31.686Z,7.13
2017-08-18T23:42:59.095Z,8.70
2017-08-18T23:45:26.503Z,12.13
2017-08-18T23:47:53.895Z,10.53
2017-08-18T23:50:21.279Z,9.73
2017-08-18T23:52:48.679Z,12.27
2017-08-18T23:55:16.071Z,12.40
2017-08-18T23:57:43.470Z,10.97
